createdAt,value
2023-02-12T00:01:13.307Z,90.90
2023-02-12T00:03:41.066Z,89.96
2023-02-12T00:06:08.849Z,90.16
2023-02-12T00:08:36.073Z,90.75
2023-02-12T00:11:16.067Z,91.02
2023-02-12T00:13:43.462Z,90.83
2023-02-12T00:16:13.718Z,92.22
2023-02-12T00:18:40.727Z,92.25
2023-02-12T00:21:11.473Z,91.68
2023-02-12T00:23:39.565Z,92.39
2023-02-12T00:26:08.652Z,92.57
2023-02-12T00:28:36.274Z,92.78
2023-02-12T00:31:14.403Z,92.28
2023-02-12T00:33:42.159Z,92.07
2023-02-12T00:36:14.694Z,92.45
2023-02-12T00:38:41.688Z,91.73
2023-02-12T00:41:09.205Z,91.43
2023-02-12T00:43:36.197Z,90.85
2023-02-12T00:46:03.564Z,90.94
2023-02-12T00:48:31.392Z,90.50
2023-02-12T00:50:58.344Z,91.48
2023-02-12T00:53:26.039Z,90.80
2023-02-12T00:55:53.770Z,91.13
2023-02-12T00:58:21.945Z,90.28
2023-02-12T01:00:49.214Z,90.49
2023-02-12T01:03:19.568Z,89.97
2023-02-12T01:05:47.105Z,91.24
2023-02-12T01:08:16.261Z,90.49
2023-02-12T01:10:44.588Z,89.49
2023-02-12T01:13:16.389Z,89.79
2023-02-12T01:15:43.432Z,88.91
2023-02-12T01:18:11.380Z,89.59
2023-02-12T01:20:40.842Z,89.15
2023-02-12T01:23:08.680Z,89.73
2023-02-12T01:25:35.915Z,89.04
2023-02-12T01:28:03.481Z,89.67
2023-02-12T01:30:30.273Z,89.97
2023-02-12T01:33:01.127Z,90.64
2023-02-12T01:35:28.606Z,89.67
2023-02-12T01:37:57.457Z,90.73
2023-02-12T01:40:25.610Z,92.22
2023-02-12T01:42:52.929Z,91.97
2023-02-12T01:45:23.008Z,90.27
2023-02-12T01:47:50.046Z,90.14
2023-02-12T01:50:20.734Z,90.61
2023-02-12T01:52:54.156Z,90.19
2023-02-12T01:55:22.661Z,91.50
2023-02-12T01:57:49.813Z,91.81
2023-02-12T02:00:21.449Z,92.50
2023-02-12T02:02:53.714Z,93.14
2023-02-12T02:05:39.252Z,92.04
2023-02-12T02:08:06.703Z,92.04
2023-02-12T02:10:34.168Z,92.76
2023-02-12T02:13:20.538Z,92.72
2023-02-12T02:15:53.515Z,91.39
2023-02-12T02:18:48.243Z,91.17
2023-02-12T02:21:41.930Z,92.03
2023-02-12T02:24:48.440Z,92.65
2023-02-12T02:27:52.455Z,92.68
2023-02-12T02:30:51.364Z,94.13
2023-02-12T02:33:39.944Z,95.84
2023-02-12T02:36:50.827Z,97.47
2023-02-12T02:39:49.001Z,96.80
2023-02-12T02:42:54.928Z,98.70
2023-02-12T02:45:44.156Z,99.37
2023-02-12T02:48:23.877Z,99.77
2023-02-12T02:50:59.978Z,100.00
2023-02-12T02:53:44.206Z,100.00
2023-02-12T02:56:16.221Z,99.92
2023-02-12T02:59:06.367Z,100.00
2023-02-12T03:01:40.392Z,100.00
2023-02-12T03:04:12.853Z,100.00
2023-02-12T03:06:47.749Z,100.00
2023-02-12T03:09:42.583Z,100.00
2023-02-12T03:12:15.652Z,99.82
2023-02-12T03:14:53.372Z,99.56
2023-02-12T03:17:24.130Z,99.90
2023-02-12T03:19:57.765Z,99.31
2023-02-12T03:22:53.651Z,100.00
2023-02-12T03:25:28.766Z,99.75
2023-02-12T03:30:18.887Z,99.71
2023-02-12T03:33:06.026Z,100.00
2023-02-12T03:35:42.564Z,99.82
2023-02-12T03:38:30.837Z,100.00
2023-02-12T03:41:14.204Z,100.00
2023-02-12T03:43:51.778Z,99.83
2023-02-12T03:46:43.464Z,99.99
2023-02-12T03:49:15.853Z,98.62
2023-02-12T03:51:45.490Z,99.10
2023-02-12T03:54:17.377Z,100.00
2023-02-12T03:56:54.325Z,99.92
2023-02-12T03:59:25.931Z,100.00
2023-02-12T04:01:56.195Z,100.00
2023-02-12T04:04:25.168Z,100.00
2023-02-12T04:06:53.870Z,100.00
2023-02-12T04:09:23.122Z,100.00
2023-02-12T04:12:17.150Z,100.00
2023-02-12T04:14:53.606Z,100.00
2023-02-12T04:17:46.970Z,100.00
2023-02-12T04:20:32.373Z,100.00
2023-02-12T04:23:10.593Z,100.00
2023-02-12T04:26:03.379Z,100.00
2023-02-12T04:29:15.703Z,100.00
2023-02-12T04:31:47.946Z,100.00
2023-02-12T04:34:21.016Z,100.00
2023-02-12T04:37:04.653Z,100.00
2023-02-12T04:39:37.331Z,100.00
2023-02-12T04:42:05.294Z,100.00
2023-02-12T04:44:35.939Z,100.00
2023-02-12T04:47:03.549Z,100.00
2023-02-12T04:49:30.754Z,100.00
2023-02-12T04:51:58.227Z,100.00
2023-02-12T04:54:25.948Z,100.00
2023-02-12T04:56:52.864Z,100.00
2023-02-12T04:59:19.594Z,100.00
2023-02-12T05:01:46.794Z,100.00
2023-02-12T05:04:15.888Z,100.00
2023-02-12T05:06:44.096Z,100.00
2023-02-12T05:09:15.539Z,100.00
2023-02-12T05:11:43.082Z,100.00
2023-02-12T05:14:10.749Z,100.00
2023-02-12T05:16:39.238Z,100.00
2023-02-12T05:19:06.409Z,100.00
2023-02-12T05:21:33.528Z,100.00
2023-02-12T05:24:02.679Z,100.00
2023-02-12T05:26:29.757Z,100.00
2023-02-12T05:28:57.397Z,100.00
2023-02-12T05:31:24.721Z,100.00
2023-02-12T05:33:52.481Z,100.00
2023-02-12T05:36:22.142Z,100.00
2023-02-12T05:38:50.084Z,100.00
2023-02-12T05:41:21.090Z,100.00
2023-02-12T05:43:49.817Z,100.00
2023-02-12T05:46:18.495Z,100.00
2023-02-12T05:48:45.963Z,100.00
2023-02-12T05:51:22.180Z,100.00
2023-02-12T05:53:51.400Z,100.00
2023-02-12T05:56:21.736Z,100.00
2023-02-12T05:58:58.072Z,100.00
2023-02-12T06:01:39.518Z,100.00
2023-02-12T06:04:09.525Z,100.00
2023-02-12T06:06:36.819Z,100.00
2023-02-12T06:09:04.380Z,100.00
2023-02-12T06:11:31.531Z,100.00
2023-02-12T06:13:58.701Z,100.00
2023-02-12T06:16:29.412Z,100.00
2023-02-12T06:18:58.007Z,100.00
2023-02-12T06:21:26.906Z,100.00
2023-02-12T06:23:54.213Z,95.80
2023-02-12T06:26:22.232Z,92.04
2023-02-12T06:28:49.795Z,91.71
2023-02-12T06:31:29.808Z,91.68
2023-02-12T06:33:59.199Z,93.63
2023-02-12T06:36:28.872Z,96.14
2023-02-12T06:38:56.401Z,90.75
2023-02-12T06:41:24.170Z,87.33
2023-02-12T06:43:51.456Z,86.06
2023-02-12T06:46:18.676Z,87.63
2023-02-12T06:48:46.026Z,89.62
2023-02-12T06:51:14.832Z,90.10
2023-02-12T06:53:42.376Z,88.65
2023-02-12T06:56:13.434Z,90.02
2023-02-12T06:58:43.095Z,87.02
2023-02-12T07:01:18.092Z,83.61
2023-02-12T07:03:49.927Z,83.19
2023-02-12T07:06:17.081Z,82.30
2023-02-12T07:08:44.139Z,86.94
2023-02-12T07:11:11.867Z,87.07
2023-02-12T07:13:41.078Z,81.32
2023-02-12T07:16:14.271Z,76.96
2023-02-12T07:18:42.361Z,74.75
2023-02-12T07:21:09.907Z,74.81
2023-02-12T07:23:37.146Z,73.95
2023-02-12T07:26:07.147Z,74.37
2023-02-12T07:28:34.987Z,75.26
2023-02-12T07:31:14.166Z,73.75
2023-02-12T07:33:42.344Z,72.83
2023-02-12T07:36:15.108Z,71.83
2023-02-12T07:38:42.858Z,71.00
2023-02-12T07:41:13.018Z,69.38
2023-02-12T07:43:41.851Z,69.75
2023-02-12T07:46:13.945Z,70.16
2023-02-12T07:48:41.206Z,70.42
2023-02-12T07:51:11.281Z,71.04
2023-02-12T07:53:41.178Z,69.93
2023-02-12T08:23:46.661Z,66.80
2023-02-12T08:26:30.742Z,66.83
2023-02-12T08:29:09.054Z,66.63
2023-02-12T08:31:38.861Z,67.33
2023-02-12T08:34:06.436Z,68.03
2023-02-12T08:36:39.207Z,68.30
2023-02-12T08:39:08.528Z,66.50
2023-02-12T08:41:38.434Z,66.82
2023-02-12T08:44:06.263Z,66.56
2023-02-12T08:46:37.794Z,65.42
2023-02-12T08:49:13.147Z,66.06
2023-02-12T08:51:43.494Z,65.43
2023-02-12T08:54:16.047Z,65.25
2023-02-12T08:56:42.847Z,65.02
2023-02-12T08:59:11.730Z,64.34
2023-02-12T09:01:39.494Z,64.81
2023-02-12T09:04:07.138Z,63.75
2023-02-12T09:06:36.055Z,62.97
2023-02-12T09:09:03.579Z,63.93
2023-02-12T09:11:30.931Z,62.62
2023-02-12T09:14:00.601Z,61.72
2023-02-12T09:16:31.434Z,63.62
2023-02-12T09:18:59.170Z,63.09
2023-02-12T09:21:27.245Z,62.66
2023-02-12T09:23:54.681Z,61.20
2023-02-12T09:26:26.004Z,61.32
2023-02-12T09:29:02.796Z,61.51
2023-02-12T09:31:31.950Z,62.11
2023-02-12T09:34:01.777Z,60.95
2023-02-12T09:36:29.352Z,60.89
2023-02-12T09:38:57.566Z,61.31
2023-02-12T09:41:56.332Z,62.32
2023-02-12T09:44:27.919Z,61.11
2023-02-12T09:47:05.589Z,61.48
2023-02-12T09:50:06.033Z,61.11
2023-02-12T09:52:35.693Z,61.96
2023-02-12T09:55:03.586Z,62.29
2023-02-12T09:57:36.745Z,60.57
2023-02-12T10:00:08.625Z,61.95
2023-02-12T10:02:37.653Z,60.67
2023-02-12T10:05:07.233Z,62.35
2023-02-12T10:07:40.033Z,60.25
2023-02-12T10:10:45.696Z,61.31
2023-02-12T10:13:46.272Z,59.40
2023-02-12T10:16:37.297Z,59.69
2023-02-12T10:19:33.906Z,60.30
2023-02-12T10:22:36.272Z,60.09
2023-02-12T10:25:09.244Z,58.81
2023-02-12T10:27:52.276Z,58.92
2023-02-12T10:30:25.349Z,59.21
2023-02-12T10:32:59.173Z,59.39
2023-02-12T10:35:26.725Z,59.05
2023-02-12T10:38:01.323Z,60.05
2023-02-12T10:40:34.919Z,58.72
2023-02-12T10:43:03.192Z,59.99
2023-02-12T10:45:38.577Z,58.37
2023-02-12T10:48:22.328Z,58.81
2023-02-12T10:51:08.944Z,59.05
2023-02-12T10:53:46.435Z,59.80
2023-02-12T10:56:13.576Z,58.75
2023-02-12T10:58:54.489Z,57.93
2023-02-12T11:01:26.612Z,60.33
2023-02-12T11:03:56.569Z,59.80
2023-02-12T11:06:28.160Z,60.20
2023-02-12T11:08:56.406Z,59.18
2023-02-12T11:11:38.921Z,58.51
2023-02-12T11:14:17.170Z,58.17
2023-02-12T11:16:53.993Z,57.76
2023-02-12T11:19:28.060Z,58.59
2023-02-12T11:22:11.544Z,56.49
2023-02-12T11:24:39.422Z,59.38
2023-02-12T11:27:22.025Z,58.22
2023-02-12T11:30:11.114Z,57.66
2023-02-12T11:32:38.072Z,57.70
2023-02-12T11:35:35.308Z,58.52
2023-02-12T11:38:06.664Z,58.82
2023-02-12T11:40:34.328Z,57.75
2023-02-12T11:43:06.336Z,57.90
2023-02-12T11:45:42.160Z,58.14
2023-02-12T11:48:22.779Z,57.74
2023-02-12T11:50:53.052Z,60.29
2023-02-12T11:53:27.974Z,60.30
2023-02-12T11:55:59.020Z,59.06
2023-02-12T11:58:29.660Z,59.97
2023-02-12T12:01:12.227Z,59.75
2023-02-12T12:03:58.160Z,59.59
2023-02-12T12:06:42.085Z,59.40
2023-02-12T12:09:29.570Z,59.90
2023-02-12T12:12:11.949Z,59.88
2023-02-12T12:15:13.723Z,58.42
2023-02-12T12:18:08.052Z,60.32
2023-02-12T12:20:57.611Z,59.74
2023-02-12T12:23:52.356Z,57.34
2023-02-12T12:26:26.092Z,56.03
2023-02-12T12:29:12.444Z,57.71
2023-02-12T12:31:44.178Z,57.27
2023-02-12T12:34:17.439Z,57.97
2023-02-12T12:37:03.305Z,56.63
2023-02-12T12:39:58.036Z,58.10
2023-02-12T12:43:02.532Z,57.90
2023-02-12T12:45:51.366Z,58.79
2023-02-12T12:48:36.457Z,59.16
2023-02-12T12:51:21.981Z,59.59
2023-02-12T12:54:00.428Z,58.64
2023-02-12T12:56:43.945Z,57.92
2023-02-12T12:59:42.281Z,58.21
2023-02-12T13:02:27.538Z,59.90
2023-02-12T13:05:22.275Z,58.61
2023-02-12T13:08:38.307Z,59.79
2023-02-12T13:11:08.263Z,59.90
2023-02-12T13:13:42.184Z,58.98
2023-02-12T13:16:31.971Z,59.14
2023-02-12T13:19:07.625Z,59.51
2023-02-12T13:22:05.890Z,59.86
2023-02-12T13:25:01.494Z,61.46
2023-02-12T13:27:34.916Z,61.40
2023-02-12T13:30:26.823Z,61.25
2023-02-12T13:33:02.548Z,62.05
2023-02-12T13:35:31.927Z,61.36
2023-02-12T13:38:01.064Z,61.42
2023-02-12T13:40:30.693Z,61.89
2023-02-12T13:43:34.150Z,62.47
2023-02-12T13:46:03.816Z,62.25
2023-02-12T13:48:55.598Z,63.03
2023-02-12T13:52:08.959Z,62.20
2023-02-12T13:54:54.901Z,63.87
2023-02-12T13:57:22.308Z,63.71
2023-02-12T13:59:54.542Z,63.78
2023-02-12T14:02:33.408Z,64.92
2023-02-12T14:05:00.697Z,63.81
2023-02-12T14:07:46.735Z,64.53
2023-02-12T14:10:25.217Z,63.58
2023-02-12T14:12:53.932Z,64.34
2023-02-12T14:16:52.763Z,64.13
2023-02-12T14:19:57.602Z,64.87
2023-02-12T14:22:27.573Z,64.69
2023-02-12T14:24:56.671Z,64.40
2023-02-12T14:27:44.762Z,65.47
2023-02-12T14:30:11.704Z,64.36
2023-02-12T14:32:53.478Z,65.14
2023-02-12T14:35:26.384Z,66.51
2023-02-12T14:37:54.745Z,66.28
2023-02-12T14:40:47.066Z,67.58
2023-02-12T14:43:55.246Z,66.46
2023-02-12T14:46:25.040Z,67.56
2023-02-12T14:49:05.026Z,66.50
2023-02-12T14:51:54.524Z,67.47
2023-02-12T14:54:43.062Z,68.12
2023-02-12T14:57:26.170Z,67.50
2023-02-12T14:59:58.704Z,69.40
2023-02-12T15:02:29.354Z,67.58
2023-02-12T15:05:13.078Z,68.24
2023-02-12T15:07:56.153Z,69.06
2023-02-12T15:10:28.883Z,69.21
2023-02-12T15:13:19.991Z,69.97
2023-02-12T15:15:56.207Z,71.22
2023-02-12T15:18:31.091Z,71.40
2023-02-12T15:21:23.746Z,69.70
2023-02-12T15:24:07.569Z,71.01
2023-02-12T15:27:44.597Z,71.05
2023-02-12T15:30:25.995Z,71.30
2023-02-12T15:37:22.355Z,73.45
2023-02-12T15:40:07.603Z,72.73
2023-02-12T15:45:32.104Z,74.47
2023-02-12T15:48:02.259Z,73.83
2023-02-12T15:50:48.027Z,74.04
2023-02-12T15:53:19.487Z,74.23
2023-02-12T15:55:49.162Z,74.10
2023-02-12T16:01:21.945Z,74.53
2023-02-12T16:04:34.491Z,73.71
2023-02-12T16:07:02.643Z,76.66
2023-02-12T16:09:41.100Z,77.31
2023-02-12T16:12:15.013Z,78.12
2023-02-12T16:14:49.184Z,76.54
2023-02-12T16:17:25.307Z,78.74
2023-02-12T16:20:05.350Z,78.68
2023-02-12T16:22:44.346Z,80.32
2023-02-12T16:25:36.337Z,81.39
2023-02-12T16:28:18.119Z,83.24
2023-02-12T16:30:48.766Z,84.81
2023-02-12T16:33:53.350Z,85.54
2023-02-12T16:36:20.401Z,85.37
2023-02-12T16:39:03.127Z,86.21
2023-02-12T16:41:32.558Z,87.00
2023-02-12T16:44:02.742Z,88.20
2023-02-12T16:46:33.259Z,89.29
2023-02-12T16:49:02.198Z,89.94
2023-02-12T16:51:37.601Z,89.54
2023-02-12T16:54:24.542Z,91.36
2023-02-12T16:56:52.039Z,93.26
2023-02-12T16:59:19.830Z,93.31
2023-02-12T17:02:07.320Z,94.56
2023-02-12T17:04:34.671Z,94.75
2023-02-12T17:07:01.733Z,95.25
2023-02-12T17:09:32.584Z,94.65
2023-02-12T17:11:59.768Z,95.29
2023-02-12T17:14:43.091Z,94.88
2023-02-12T17:17:39.297Z,94.37
2023-02-12T17:20:46.217Z,95.35
2023-02-12T17:27:11.896Z,95.10
2023-02-12T17:29:39.116Z,95.73
2023-02-12T17:32:06.609Z,96.66
2023-02-12T17:34:48.549Z,98.15
2023-02-12T17:37:18.453Z,97.63
2023-02-12T17:39:47.568Z,97.20
2023-02-12T17:42:14.841Z,99.11
2023-02-12T17:44:41.811Z,98.51
2023-02-12T17:53:46.955Z,99.65
2023-02-12T17:56:17.006Z,99.33
2023-02-12T17:58:44.932Z,99.83
2023-02-12T18:01:42.350Z,100.00
2023-02-12T18:08:07.658Z,99.86
2023-02-12T18:11:30.553Z,100.00
2023-02-12T18:13:57.994Z,99.78
2023-02-12T18:16:27.218Z,99.76
2023-02-12T18:18:54.407Z,99.66
2023-02-12T18:21:21.572Z,100.00
2023-02-12T18:23:49.219Z,100.00
2023-02-12T18:26:19.006Z,100.00
2023-02-12T18:28:46.249Z,100.00
2023-02-12T18:31:14.128Z,99.40
2023-02-12T18:33:41.687Z,99.51
2023-02-12T18:36:15.121Z,100.00
2023-02-12T18:38:43.928Z,100.00
2023-02-12T18:41:29.561Z,100.00
2023-02-12T18:44:03.417Z,100.00
2023-02-12T18:46:32.165Z,100.00
2023-02-12T18:49:00.894Z,100.00
2023-02-12T18:51:31.218Z,100.00
2023-02-12T18:54:02.113Z,99.59
2023-02-12T18:56:30.624Z,99.53
2023-02-12T18:58:59.777Z,99.77
2023-02-12T19:01:28.722Z,99.67
2023-02-12T19:03:59.184Z,99.80
2023-02-12T19:06:28.047Z,99.39
2023-02-12T19:09:03.392Z,99.61
2023-02-12T19:11:34.657Z,99.79
2023-02-12T19:14:02.382Z,99.42
2023-02-12T19:16:29.531Z,99.77
2023-02-12T19:19:02.944Z,100.00
2023-02-12T19:21:31.463Z,100.00
2023-02-12T19:24:03.248Z,99.69
2023-02-12T19:26:32.596Z,100.00
2023-02-12T19:29:00.098Z,100.00
2023-02-12T19:31:31.065Z,100.00
2023-02-12T19:34:00.724Z,99.67
2023-02-12T19:36:41.412Z,99.12
2023-02-12T19:42:49.782Z,99.43
2023-02-12T19:48:55.942Z,99.76
2023-02-12T19:51:59.651Z,98.97
2023-02-12T19:54:36.949Z,98.40
2023-02-12T19:57:09.856Z,99.07
2023-02-12T19:59:38.597Z,99.40
2023-02-12T20:02:09.518Z,99.12
2023-02-12T20:08:09.346Z,97.02
2023-02-12T20:10:56.093Z,97.17
2023-02-12T20:22:01.899Z,97.75
2023-02-12T20:24:42.575Z,97.48
2023-02-12T20:27:16.088Z,97.52
2023-02-12T20:29:44.475Z,97.50
2023-02-12T20:32:13.664Z,97.42
2023-02-12T20:34:50.513Z,97.07
2023-02-12T20:37:28.878Z,97.36
2023-02-12T20:39:57.294Z,97.14
2023-02-12T20:42:34.461Z,97.51
2023-02-12T20:45:01.698Z,97.54
2023-02-12T20:47:29.213Z,97.48
2023-02-12T20:50:00.884Z,97.23
2023-02-12T20:52:34.835Z,97.37
2023-02-12T20:55:09.910Z,96.88
2023-02-12T21:01:52.987Z,98.95
2023-02-12T21:04:23.726Z,99.35
2023-02-12T21:07:11.049Z,99.93
2023-02-12T21:09:39.327Z,100.00
2023-02-12T21:12:07.269Z,100.00
2023-02-12T21:14:41.776Z,100.00
2023-02-12T21:17:09.503Z,100.00
2023-02-12T21:23:23.643Z,100.00
2023-02-12T21:26:04.487Z,100.00
2023-02-12T21:28:35.413Z,100.00
2023-02-12T21:31:13.667Z,100.00
2023-02-12T21:33:42.343Z,100.00
2023-02-12T21:43:28.994Z,100.00
2023-02-12T21:50:31.503Z,100.00
2023-02-12T21:53:00.810Z,100.00
2023-02-12T21:58:39.309Z,100.00
2023-02-12T22:01:18.849Z,100.00
2023-02-12T22:07:01.733Z,100.00
2023-02-12T22:09:35.374Z,100.00
2023-02-12T22:12:02.487Z,100.00
2023-02-12T22:14:29.506Z,100.00
2023-02-12T22:16:56.398Z,100.00
2023-02-12T22:19:31.381Z,100.00
2023-02-12T22:21:58.420Z,100.00
2023-02-12T22:24:28.742Z,100.00
2023-02-12T22:26:56.023Z,100.00
2023-02-12T22:29:23.969Z,100.00
2023-02-12T22:31:50.825Z,100.00
2023-02-12T22:34:23.802Z,100.00
2023-02-12T22:36:51.498Z,100.00
2023-02-12T22:39:19.294Z,100.00
2023-02-12T22:41:46.532Z,100.00
2023-02-12T22:44:15.040Z,100.00
2023-02-12T22:46:43.235Z,100.00
2023-02-12T22:49:10.977Z,100.00
2023-02-12T22:51:40.358Z,100.00
2023-02-12T22:54:13.416Z,100.00
2023-02-12T22:56:44.297Z,100.00
2023-02-12T23:02:56.827Z,100.00
2023-02-12T23:08:10.081Z,100.00
2023-02-12T23:10:38.165Z,100.00
2023-02-12T23:13:04.905Z,100.00
2023-02-12T23:15:32.247Z,100.00
2023-02-12T23:17:59.908Z,100.00
2023-02-12T23:20:27.234Z,100.00
2023-02-12T23:22:54.886Z,100.00
2023-02-12T23:25:22.453Z,100.00
2023-02-12T23:27:49.414Z,100.00
2023-02-12T23:30:16.975Z,100.00
2023-02-12T23:32:47.630Z,100.00
2023-02-12T23:35:15.170Z,100.00
2023-02-12T23:37:43.327Z,100.00
2023-02-12T23:40:11.295Z,100.00
2023-02-12T23:42:38.505Z,100.00
2023-02-12T23:45:07.556Z,100.00
2023-02-12T23:47:35.141Z,100.00
2023-02-12T23:50:02.225Z,100.00
2023-02-12T23:52:29.279Z,100.00
2023-02-12T23:54:57.018Z,100.00
2023-02-12T23:57:24.443Z,100.00
2023-02-12T23:59:51.689Z,100.00
